createdAt,value
2018-08-24T00:00:33.519Z,15.93
2018-08-24T00:03:38.021Z,15.97
2018-08-24T00:06:42.639Z,15.91
2018-08-24T00:09:47.480Z,15.89
2018-08-24T00:12:51.929Z,15.88
2018-08-24T00:15:56.344Z,15.82
2018-08-24T00:19:00.771Z,15.78
2018-08-24T00:22:05.226Z,15.73
2018-08-24T00:25:09.726Z,15.81
2018-08-24T00:28:14.483Z,15.79
2018-08-24T00:31:19.083Z,15.78
2018-08-24T00:34:23.568Z,15.75
2018-08-24T00:37:27.953Z,15.79
2018-08-24T00:40:32.329Z,15.93
2018-08-24T00:43:36.765Z,15.83
2018-08-24T00:46:41.392Z,15.78
2018-08-24T00:49:45.983Z,15.76
2018-08-24T00:52:50.432Z,15.73
2018-08-24T00:55:55.255Z,15.70
2018-08-24T00:58:59.672Z,15.65
2018-08-24T01:02:04.155Z,15.68
2018-08-24T01:05:09.258Z,15.85
2018-08-24T01:08:13.774Z,15.75
2018-08-24T01:11:18.147Z,15.72
2018-08-24T01:14:22.638Z,15.71
2018-08-24T01:17:32.303Z,15.69
2018-08-24T01:20:36.755Z,15.66
2018-08-24T01:23:41.227Z,15.62
2018-08-24T01:26:49.669Z,15.58
2018-08-24T01:29:54.800Z,15.58
2018-08-24T01:32:59.232Z,15.60
2018-08-24T01:36:04.200Z,15.55
2018-08-24T01:39:09.086Z,15.54
2018-08-24T01:42:13.440Z,15.54
2018-08-24T01:45:17.838Z,15.50
2018-08-24T01:48:22.491Z,15.48
2018-08-24T01:51:27.120Z,15.47
2018-08-24T01:54:31.550Z,15.43
2018-08-24T01:57:35.903Z,15.34
2018-08-24T02:00:52.247Z,15.32
2018-08-24T02:03:57.262Z,15.28
2018-08-24T02:07:01.611Z,15.30
2018-08-24T02:10:10.093Z,15.31
2018-08-24T02:13:19.804Z,15.32
2018-08-24T02:16:24.206Z,15.35
2018-08-24T02:19:33.469Z,15.33
2018-08-24T02:22:37.826Z,15.35
2018-08-24T02:25:42.762Z,15.38
2018-08-24T02:28:47.185Z,15.33
2018-08-24T02:31:51.897Z,15.30
2018-08-24T02:34:59.003Z,15.25
2018-08-24T02:38:03.418Z,15.24
2018-08-24T02:41:07.816Z,15.18
2018-08-24T02:44:12.485Z,15.13
2018-08-24T02:47:16.895Z,15.12
2018-08-24T02:50:21.534Z,15.08
2018-08-24T02:53:25.973Z,15.15
2018-08-24T02:56:30.361Z,15.07
2018-08-24T02:59:34.785Z,15.07
2018-08-24T03:02:39.315Z,15.07
2018-08-24T03:05:43.901Z,15.02
2018-08-24T03:08:48.415Z,15.17
2018-08-24T03:11:52.837Z,15.04
2018-08-24T03:14:57.224Z,15.05
2018-08-24T03:18:01.590Z,14.96
2018-08-24T03:21:06.202Z,14.95
2018-08-24T03:24:10.773Z,14.87
2018-08-24T03:27:15.295Z,14.79
2018-08-24T03:30:19.846Z,14.76
2018-08-24T03:33:24.207Z,14.78
2018-08-24T03:36:28.645Z,14.77
2018-08-24T03:39:33.090Z,14.63
2018-08-24T03:42:43.985Z,14.60
2018-08-24T03:45:48.495Z,14.59
2018-08-24T03:48:52.900Z,14.57
2018-08-24T03:51:57.359Z,14.55
2018-08-24T03:55:02.844Z,14.56
2018-08-24T03:58:08.293Z,14.70
2018-08-24T04:01:12.913Z,14.80
2018-08-24T04:04:17.473Z,14.51
2018-08-24T04:07:21.833Z,14.49
2018-08-24T04:10:27.243Z,14.46
2018-08-24T04:13:31.885Z,14.41
2018-08-24T04:16:41.677Z,14.39
2018-08-24T04:19:46.133Z,14.55
2018-08-24T04:22:50.502Z,14.48
2018-08-24T04:25:55.074Z,14.46
2018-08-24T04:29:00.232Z,14.46
2018-08-24T04:32:04.694Z,14.56
2018-08-24T04:35:09.076Z,14.63
2018-08-24T04:38:13.569Z,14.68
2018-08-24T04:41:17.948Z,14.72
2018-08-24T04:44:22.547Z,14.91
2018-08-24T04:47:27.017Z,15.15
2018-08-24T04:50:32.105Z,15.05
2018-08-24T04:53:36.536Z,15.06
2018-08-24T04:56:41.037Z,15.17
2018-08-24T04:59:45.851Z,15.31
2018-08-24T05:02:50.234Z,15.44
2018-08-24T05:05:54.684Z,15.62
2018-08-24T05:08:59.215Z,15.90
2018-08-24T05:12:03.840Z,16.16
2018-08-24T05:15:08.311Z,16.37
2018-08-24T05:18:12.718Z,16.52
2018-08-24T05:21:17.143Z,16.58
2018-08-24T05:24:21.668Z,16.69
2018-08-24T05:27:26.097Z,16.72
2018-08-24T05:30:30.520Z,16.75
2018-08-24T05:33:35.014Z,16.71
2018-08-24T05:36:39.652Z,16.72
2018-08-24T05:39:49.385Z,16.75
2018-08-24T05:42:53.863Z,16.84
2018-08-24T05:45:58.446Z,16.98
2018-08-24T05:49:03.090Z,17.08
2018-08-24T05:52:07.714Z,17.20
2018-08-24T05:55:12.085Z,17.39
2018-08-24T05:58:16.477Z,17.53
2018-08-24T06:01:21.069Z,17.65
2018-08-24T06:04:25.513Z,17.74
2018-08-24T06:07:29.937Z,17.77
2018-08-24T06:10:34.336Z,17.77
2018-08-24T06:13:39.104Z,17.92
2018-08-24T06:16:49.018Z,18.13
2018-08-24T06:19:53.753Z,18.44
2018-08-24T06:22:58.570Z,18.68
2018-08-24T06:26:03.461Z,18.85
2018-08-24T06:29:09.023Z,18.86
2018-08-24T06:32:13.782Z,18.90
2018-08-24T06:35:18.794Z,18.94
2018-08-24T06:38:23.575Z,18.97
2018-08-24T06:41:28.116Z,19.06
2018-08-24T06:44:32.609Z,19.25
2018-08-24T06:47:37.325Z,19.47
2018-08-24T06:50:41.796Z,19.80
2018-08-24T06:53:47.510Z,20.23
2018-08-24T06:56:52.446Z,20.42
2018-08-24T06:59:57.559Z,20.65
2018-08-24T07:03:03.865Z,20.82
2018-08-24T07:06:08.341Z,20.59
2018-08-24T07:09:12.881Z,20.43
2018-08-24T07:12:17.301Z,20.64
2018-08-24T07:15:21.715Z,20.84
2018-08-24T07:18:26.349Z,21.39
2018-08-24T07:21:30.819Z,21.28
2018-08-24T07:24:35.437Z,20.87
2018-08-24T07:27:40.070Z,21.59
2018-08-24T07:30:44.448Z,21.49
2018-08-24T07:33:48.875Z,21.50
2018-08-24T07:36:53.393Z,21.27
2018-08-24T07:39:57.923Z,21.01
2018-08-24T07:43:02.627Z,21.41
2018-08-24T07:46:08.277Z,21.62
2018-08-24T07:49:29.311Z,21.34
2018-08-24T07:52:33.819Z,22.14
2018-08-24T07:55:38.406Z,21.72
2018-08-24T07:58:42.922Z,21.02
2018-08-24T08:01:47.362Z,20.60
2018-08-24T08:04:51.905Z,21.30
2018-08-24T08:07:56.341Z,21.61
2018-08-24T08:11:01.077Z,20.85
2018-08-24T08:14:05.520Z,20.44
2018-08-24T08:17:10.088Z,20.27
2018-08-24T08:20:14.556Z,20.36
2018-08-24T08:23:19.559Z,20.37
2018-08-24T08:26:24.107Z,20.36
2018-08-24T08:29:33.870Z,20.26
2018-08-24T08:32:38.299Z,20.30
2018-08-24T08:35:43.337Z,20.66
2018-08-24T08:38:47.981Z,20.70
2018-08-24T08:41:52.418Z,20.85
2018-08-24T08:44:57.073Z,21.44
2018-08-24T08:48:01.516Z,21.88
2018-08-24T08:51:06.065Z,22.35
2018-08-24T08:54:10.793Z,22.58
2018-08-24T08:57:15.372Z,22.29
2018-08-24T09:00:19.984Z,22.29
2018-08-24T09:03:24.527Z,22.16
2018-08-24T09:06:29.753Z,22.84
2018-08-24T09:09:34.196Z,23.29
2018-08-24T09:12:38.679Z,23.01
2018-08-24T09:15:43.121Z,22.75
2018-08-24T09:18:52.920Z,23.04
2018-08-24T09:22:02.809Z,22.81
2018-08-24T09:25:12.628Z,23.27
2018-08-24T09:28:22.986Z,23.26
2018-08-24T09:31:31.426Z,23.67
2018-08-24T09:34:36.066Z,23.21
2018-08-24T09:37:40.740Z,22.65
2018-08-24T09:40:50.453Z,23.64
2018-08-24T09:44:00.125Z,23.74
2018-08-24T09:47:10.017Z,23.88
2018-08-24T09:50:19.798Z,23.34
2018-08-24T09:53:29.533Z,23.12
2018-08-24T09:56:34.772Z,22.78
2018-08-24T09:59:39.302Z,22.61
2018-08-24T10:02:44.494Z,22.42
2018-08-24T10:05:54.054Z,21.90
2018-08-24T10:08:58.880Z,21.85
2018-08-24T10:12:03.670Z,21.51
2018-08-24T10:15:09.895Z,21.18
2018-08-24T10:18:14.437Z,20.86
2018-08-24T10:21:18.906Z,20.78
2018-08-24T10:24:23.309Z,20.66
2018-08-24T10:27:27.663Z,20.77
2018-08-24T10:30:32.315Z,20.88
2018-08-24T10:33:36.772Z,20.92
2018-08-24T10:36:41.128Z,20.93
2018-08-24T10:39:45.503Z,20.76
2018-08-24T10:42:50.099Z,20.31
2018-08-24T10:45:54.550Z,20.02
2018-08-24T10:48:59.148Z,20.17
2018-08-24T10:52:03.555Z,20.09
2018-08-24T10:55:08.033Z,20.09
2018-08-24T10:58:13.782Z,20.12
2018-08-24T11:01:18.269Z,20.39
2018-08-24T11:04:22.670Z,20.36
2018-08-24T11:07:27.553Z,20.34
2018-08-24T11:10:31.997Z,19.98
2018-08-24T11:13:36.629Z,19.67
2018-08-24T11:16:41.104Z,19.54
2018-08-24T11:19:45.518Z,19.44
2018-08-24T11:22:50.021Z,19.34
2018-08-24T11:25:54.474Z,19.40
2018-08-24T11:28:59.033Z,18.97
2018-08-24T11:32:03.733Z,18.57
2018-08-24T11:35:08.238Z,18.49
2018-08-24T11:38:12.721Z,18.49
2018-08-24T11:41:17.281Z,18.82
2018-08-24T11:44:21.793Z,19.10
2018-08-24T11:47:26.557Z,19.13
2018-08-24T11:50:31.023Z,19.10
2018-08-24T11:53:35.493Z,19.10
2018-08-24T11:56:39.947Z,18.95
2018-08-24T11:59:44.441Z,18.76
2018-08-24T12:02:48.992Z,19.17
2018-08-24T12:05:53.562Z,19.91
2018-08-24T12:08:58.756Z,20.48
2018-08-24T12:12:03.371Z,21.11
2018-08-24T12:15:07.758Z,21.62
2018-08-24T12:18:12.731Z,22.55
2018-08-24T12:21:17.419Z,23.45
2018-08-24T12:24:21.931Z,23.69
2018-08-24T12:27:26.433Z,23.91
2018-08-24T12:30:30.935Z,23.87
2018-08-24T12:33:35.524Z,23.66
2018-08-24T12:36:40.225Z,24.00
2018-08-24T12:39:44.678Z,23.97
2018-08-24T12:42:49.211Z,23.57
2018-08-24T12:45:53.783Z,23.45
2018-08-24T12:48:58.380Z,23.76
2018-08-24T12:52:03.427Z,23.98
2018-08-24T12:55:09.361Z,23.97
2018-08-24T12:58:14.221Z,24.07
2018-08-24T13:01:19.382Z,24.27
2018-08-24T13:04:24.279Z,24.53
2018-08-24T13:07:29.355Z,24.49
2018-08-24T13:10:33.886Z,24.52
2018-08-24T13:13:38.727Z,24.47
2018-08-24T13:16:43.537Z,25.02
2018-08-24T13:19:48.150Z,25.06
2018-08-24T13:22:53.083Z,24.76
2018-08-24T13:25:57.775Z,24.67
2018-08-24T13:29:02.472Z,24.52
2018-08-24T13:32:07.270Z,24.45
2018-08-24T13:35:11.747Z,24.49
2018-08-24T13:38:16.342Z,24.43
2018-08-24T13:41:20.895Z,24.57
2018-08-24T13:44:27.148Z,24.43
2018-08-24T13:47:31.681Z,24.49
2018-08-24T13:50:36.225Z,24.77
2018-08-24T13:53:41.162Z,24.81
2018-08-24T13:56:45.883Z,24.86
2018-08-24T13:59:50.706Z,24.65
2018-08-24T14:02:55.482Z,24.71
2018-08-24T14:06:00.121Z,24.82
2018-08-24T14:09:06.970Z,24.76
2018-08-24T14:12:11.607Z,24.55
2018-08-24T14:15:16.607Z,24.73
2018-08-24T14:18:21.356Z,24.66
2018-08-24T14:21:25.951Z,25.08
2018-08-24T14:25:33.846Z,25.23
2018-08-24T14:28:38.415Z,23.66
2018-08-24T14:31:43.014Z,23.67
2018-08-24T14:34:47.553Z,23.24
2018-08-24T14:37:52.120Z,23.20
2018-08-24T14:40:56.747Z,23.10
2018-08-24T14:44:01.511Z,23.45
2018-08-24T14:47:06.249Z,24.04
2018-08-24T14:50:11.371Z,23.70
2018-08-24T14:53:16.064Z,23.66
2018-08-24T14:56:20.812Z,23.54
2018-08-24T14:59:25.392Z,23.57
2018-08-24T15:02:30.191Z,23.65
2018-08-24T15:05:35.038Z,23.54
2018-08-24T15:08:39.487Z,23.72
2018-08-24T15:11:43.983Z,24.06
2018-08-24T15:14:48.513Z,23.78
2018-08-24T15:17:53.099Z,23.39
2018-08-24T15:20:57.665Z,22.65
2018-08-24T15:24:02.115Z,21.13
2018-08-24T15:27:06.490Z,20.30
2018-08-24T15:30:11.099Z,19.75
2018-08-24T15:33:15.658Z,19.53
2018-08-24T15:36:21.719Z,19.37
2018-08-24T15:39:28.763Z,19.33
2018-08-24T15:42:34.278Z,19.15
2018-08-24T15:45:43.076Z,18.74
2018-08-24T15:48:47.694Z,18.63
2018-08-24T15:51:52.520Z,18.59
2018-08-24T15:54:56.987Z,18.50
2018-08-24T15:58:01.500Z,18.49
2018-08-24T16:01:05.991Z,18.47
2018-08-24T16:04:10.624Z,18.60
2018-08-24T16:07:17.925Z,18.62
2018-08-24T16:10:23.826Z,18.61
2018-08-24T16:13:28.914Z,18.59
2018-08-24T16:16:34.940Z,18.57
2018-08-24T16:19:39.587Z,18.64
2018-08-24T16:22:44.742Z,18.69
2018-08-24T16:25:49.685Z,18.68
2018-08-24T16:28:54.944Z,18.50
2018-08-24T16:31:59.495Z,18.42
2018-08-24T16:35:04.528Z,18.30
2018-08-24T16:38:09.568Z,18.09
2018-08-24T16:41:14.167Z,18.05
2018-08-24T16:44:18.637Z,18.01
2018-08-24T16:47:23.707Z,18.05
2018-08-24T16:50:28.293Z,18.07
2018-08-24T16:53:33.205Z,18.14
2018-08-24T16:56:39.374Z,18.08
2018-08-24T16:59:43.823Z,18.01
2018-08-24T17:02:48.360Z,17.99
2018-08-24T17:05:52.940Z,17.95
2018-08-24T17:08:57.600Z,17.90
2018-08-24T17:12:02.009Z,17.84
2018-08-24T17:15:07.137Z,17.73
2018-08-24T17:18:12.004Z,17.78
2018-08-24T17:21:21.260Z,17.74
2018-08-24T17:24:25.814Z,17.67
2018-08-24T17:27:30.310Z,17.66
2018-08-24T17:30:35.005Z,17.75
2018-08-24T17:33:39.648Z,17.74
2018-08-24T17:36:44.069Z,17.60
2018-08-24T17:39:48.585Z,17.46
2018-08-24T17:42:53.045Z,17.40
2018-08-24T17:45:58.070Z,17.28
2018-08-24T17:49:02.593Z,17.16
2018-08-24T17:52:06.993Z,17.03
2018-08-24T17:55:11.566Z,17.04
2018-08-24T17:58:15.937Z,17.03
2018-08-24T18:01:20.313Z,17.00
2018-08-24T18:04:24.681Z,16.91
2018-08-24T18:07:29.180Z,16.77
2018-08-24T18:10:33.686Z,16.67
2018-08-24T18:13:38.292Z,16.61
2018-08-24T18:16:42.736Z,16.56
2018-08-24T18:19:47.308Z,16.50
2018-08-24T18:22:52.113Z,16.47
2018-08-24T18:25:59.150Z,16.44
2018-08-24T18:29:03.918Z,16.40
2018-08-24T18:32:08.647Z,16.32
2018-08-24T18:35:13.183Z,16.22
2018-08-24T18:38:18.068Z,16.19
2018-08-24T18:41:22.581Z,16.14
2018-08-24T18:44:27.103Z,16.11
2018-08-24T18:47:32.873Z,16.12
2018-08-24T18:50:37.688Z,16.11
2018-08-24T18:53:42.452Z,16.17
2018-08-24T18:56:46.885Z,16.15
2018-08-24T18:59:51.616Z,16.26
2018-08-24T19:02:56.020Z,16.25
2018-08-24T19:06:00.533Z,16.19
2018-08-24T19:09:07.925Z,16.34
2018-08-24T19:12:17.674Z,16.28
2018-08-24T19:15:22.376Z,16.32
2018-08-24T19:18:32.174Z,16.33
2018-08-24T19:21:43.671Z,16.26
2018-08-24T19:24:48.598Z,16.15
2018-08-24T19:27:58.455Z,16.10
2018-08-24T19:31:03.109Z,15.93
2018-08-24T19:34:07.857Z,15.75
2018-08-24T19:37:12.490Z,15.72
2018-08-24T19:40:22.360Z,15.73
2018-08-24T19:43:28.530Z,15.68
2018-08-24T19:46:34.938Z,15.72
2018-08-24T19:49:39.734Z,15.64
2018-08-24T19:52:44.253Z,15.65
2018-08-24T19:55:49.035Z,15.63
2018-08-24T19:58:58.950Z,15.59
2018-08-24T20:02:03.603Z,15.53
2018-08-24T20:05:08.271Z,15.45
2018-08-24T20:08:18.143Z,15.41
2018-08-24T20:11:23.149Z,15.37
2018-08-24T20:14:34.689Z,15.38
2018-08-24T20:17:39.032Z,15.34
2018-08-24T20:20:43.535Z,15.26
2018-08-24T20:23:47.944Z,15.31
2018-08-24T20:26:52.634Z,15.21
2018-08-24T20:29:57.091Z,15.15
2018-08-24T20:33:01.702Z,15.14
2018-08-24T20:36:07.118Z,15.27
2018-08-24T20:39:12.366Z,15.13
2018-08-24T20:42:16.902Z,15.22
2018-08-24T20:45:22.238Z,15.20
2018-08-24T20:48:28.160Z,15.12
2018-08-24T20:51:32.896Z,15.13
2018-08-24T20:54:37.818Z,15.09
2018-08-24T20:57:42.255Z,15.08
2018-08-24T21:00:48.802Z,15.07
2018-08-24T21:03:53.290Z,15.01
2018-08-24T21:06:57.849Z,15.03
2018-08-24T21:10:02.468Z,14.98
2018-08-24T21:13:07.276Z,14.96
2018-08-24T21:16:13.688Z,14.95
2018-08-24T21:19:18.213Z,14.96
2018-08-24T21:22:22.978Z,14.89
2018-08-24T21:25:27.669Z,14.87
2018-08-24T21:28:32.051Z,14.92
2018-08-24T21:31:36.497Z,14.88
2018-08-24T21:34:40.910Z,14.84
2018-08-24T21:37:45.346Z,14.77
2018-08-24T21:40:49.745Z,14.79
2018-08-24T21:43:54.308Z,14.78
2018-08-24T21:46:58.729Z,14.73
2018-08-24T21:50:03.173Z,14.82
2018-08-24T21:53:07.712Z,14.82
2018-08-24T21:56:12.111Z,14.77
2018-08-24T21:59:16.497Z,14.73
2018-08-24T22:02:21.031Z,14.75
2018-08-24T22:05:25.406Z,14.76
2018-08-24T22:08:29.845Z,14.69
2018-08-24T22:11:34.496Z,14.69
2018-08-24T22:14:38.913Z,14.73
2018-08-24T22:17:43.389Z,14.61
2018-08-24T22:20:47.800Z,14.63
2018-08-24T22:23:52.387Z,14.60
2018-08-24T22:26:56.856Z,14.70
2018-08-24T22:30:01.378Z,14.63
2018-08-24T22:33:05.752Z,14.62
2018-08-24T22:36:10.406Z,14.64
2018-08-24T22:39:17.346Z,14.53
2018-08-24T22:42:22.549Z,14.58
2018-08-24T22:45:27.391Z,14.54
2018-08-24T22:48:32.662Z,14.59
2018-08-24T22:51:37.157Z,14.56
2018-08-24T22:54:41.689Z,14.57
2018-08-24T22:57:46.058Z,14.48
2018-08-24T23:00:50.545Z,14.49
2018-08-24T23:03:55.146Z,14.45
2018-08-24T23:06:59.549Z,14.43
2018-08-24T23:10:04.073Z,14.44
2018-08-24T23:13:08.547Z,14.44
2018-08-24T23:16:13.303Z,14.41
2018-08-24T23:19:17.677Z,14.43
2018-08-24T23:22:22.100Z,14.40
2018-08-24T23:25:26.579Z,14.45
2018-08-24T23:28:31.053Z,14.52
2018-08-24T23:31:35.440Z,14.46
2018-08-24T23:34:39.820Z,14.47
2018-08-24T23:37:44.277Z,14.55
2018-08-24T23:40:48.681Z,14.47
2018-08-24T23:43:53.116Z,14.44
2018-08-24T23:46:57.502Z,14.37
2018-08-24T23:50:01.937Z,14.40
2018-08-24T23:53:06.370Z,14.36
2018-08-24T23:56:10.777Z,14.34
2018-08-24T23:59:15.363Z,14.34
